sensor_id;sensor_type;location;lat;lon;timestamp;P1;durP1;ratioP1;P2;durP2;ratioP2
62654;SDS011;48717;55.556;37.816;2022-12-20T00:01:18;19.70;;;6.32;;
62654;SDS011;48717;55.556;37.816;2022-12-20T00:03:48;11.13;;;5.15;;
62654;SDS011;48717;55.556;37.816;2022-12-20T00:06:17;7.55;;;3.15;;
62654;SDS011;48717;55.556;37.816;2022-12-20T00:08:45;4.10;;;2.33;;
62654;SDS011;48717;55.556;37.816;2022-12-20T00:11:12;6.90;;;2.67;;
62654;SDS011;48717;55.556;37.816;2022-12-20T00:13:39;8.02;;;4.15;;
62654;SDS011;48717;55.556;37.816;2022-12-20T00:16:08;7.50;;;4.13;;
62654;SDS011;48717;55.556;37.816;2022-12-20T00:18:40;6.85;;;3.88;;
62654;SDS011;48717;55.556;37.816;2022-12-20T00:21:09;9.63;;;4.78;;
62654;SDS011;48717;55.556;37.816;2022-12-20T00:23:39;5.80;;;3.05;;
62654;SDS011;48717;55.556;37.816;2022-12-20T00:26:07;8.85;;;3.90;;
62654;SDS011;48717;55.556;37.816;2022-12-20T00:28:37;9.57;;;4.07;;
62654;SDS011;48717;55.556;37.816;2022-12-20T00:31:05;5.20;;;3.65;;
62654;SDS011;48717;55.556;37.816;2022-12-20T00:33:33;10.45;;;5.28;;
62654;SDS011;48717;55.556;37.816;2022-12-20T00:36:03;8.98;;;4.63;;
62654;SDS011;48717;55.556;37.816;2022-12-20T00:38:31;7.63;;;4.32;;
62654;SDS011;48717;55.556;37.816;2022-12-20T00:43:30;9.13;;;4.60;;
62654;SDS011;48717;55.556;37.816;2022-12-20T00:45:58;7.25;;;3.22;;
62654;SDS011;48717;55.556;37.816;2022-12-20T00:48:27;8.13;;;4.18;;
62654;SDS011;48717;55.556;37.816;2022-12-20T00:50:59;10.17;;;3.70;;
62654;SDS011;48717;55.556;37.816;2022-12-20T00:53:27;9.52;;;3.88;;
62654;SDS011;48717;55.556;37.816;2022-12-20T00:55:55;9.43;;;3.92;;
62654;SDS011;48717;55.556;37.816;2022-12-20T00:58:22;6.88;;;3.47;;
62654;SDS011;48717;55.556;37.816;2022-12-20T01:00:50;7.30;;;3.08;;
62654;SDS011;48717;55.556;37.816;2022-12-20T01:03:22;10.45;;;4.68;;
62654;SDS011;48717;55.556;37.816;2022-12-20T01:05:51;6.50;;;2.88;;
62654;SDS011;48717;55.556;37.816;2022-12-20T01:08:21;10.00;;;3.72;;
62654;SDS011;48717;55.556;37.816;2022-12-20T01:11:03;7.88;;;4.15;;
62654;SDS011;48717;55.556;37.816;2022-12-20T01:13:42;10.90;;;4.50;;
62654;SDS011;48717;55.556;37.816;2022-12-20T01:16:13;6.35;;;2.85;;
62654;SDS011;48717;55.556;37.816;2022-12-20T01:18:44;10.52;;;4.55;;
62654;SDS011;48717;55.556;37.816;2022-12-20T01:21:12;11.60;;;4.65;;
62654;SDS011;48717;55.556;37.816;2022-12-20T01:23:40;10.85;;;5.95;;
62654;SDS011;48717;55.556;37.816;2022-12-20T01:26:09;8.75;;;3.70;;
62654;SDS011;48717;55.556;37.816;2022-12-20T01:28:39;8.50;;;4.82;;
62654;SDS011;48717;55.556;37.816;2022-12-20T01:31:08;9.23;;;4.70;;
62654;SDS011;48717;55.556;37.816;2022-12-20T01:33:39;13.20;;;4.90;;
62654;SDS011;48717;55.556;37.816;2022-12-20T01:36:07;6.45;;;2.85;;
62654;SDS011;48717;55.556;37.816;2022-12-20T01:38:36;7.18;;;2.95;;
62654;SDS011;48717;55.556;37.816;2022-12-20T01:41:04;6.38;;;3.15;;
62654;SDS011;48717;55.556;37.816;2022-12-20T01:43:45;11.45;;;5.78;;
62654;SDS011;48717;55.556;37.816;2022-12-20T01:46:18;8.18;;;4.50;;
62654;SDS011;48717;55.556;37.816;2022-12-20T01:48:48;6.15;;;3.95;;
62654;SDS011;48717;55.556;37.816;2022-12-20T01:51:22;5.05;;;2.88;;
62654;SDS011;48717;55.556;37.816;2022-12-20T01:53:51;14.55;;;5.90;;
62654;SDS011;48717;55.556;37.816;2022-12-20T01:56:23;12.65;;;4.70;;
62654;SDS011;48717;55.556;37.816;2022-12-20T01:58:50;10.15;;;5.28;;
62654;SDS011;48717;55.556;37.816;2022-12-20T02:01:21;9.70;;;4.45;;
62654;SDS011;48717;55.556;37.816;2022-12-20T02:03:50;8.90;;;4.37;;
62654;SDS011;48717;55.556;37.816;2022-12-20T02:06:21;11.27;;;5.40;;
62654;SDS011;48717;55.556;37.816;2022-12-20T02:08:51;14.10;;;4.88;;
62654;SDS011;48717;55.556;37.816;2022-12-20T02:16:29;15.60;;;6.18;;
62654;SDS011;48717;55.556;37.816;2022-12-20T02:25:32;12.80;;;6.68;;
62654;SDS011;48717;55.556;37.816;2022-12-20T02:31:07;16.73;;;8.65;;
62654;SDS011;48717;55.556;37.816;2022-12-20T02:33:41;14.43;;;7.57;;
62654;SDS011;48717;55.556;37.816;2022-12-20T02:36:10;15.75;;;6.38;;
62654;SDS011;48717;55.556;37.816;2022-12-20T02:38:40;16.23;;;7.60;;
62654;SDS011;48717;55.556;37.816;2022-12-20T02:41:23;19.67;;;8.52;;
62654;SDS011;48717;55.556;37.816;2022-12-20T02:44:01;7.20;;;4.20;;
62654;SDS011;48717;55.556;37.816;2022-12-20T02:46:50;24.50;;;7.43;;
62654;SDS011;48717;55.556;37.816;2022-12-20T02:49:19;15.38;;;5.75;;
62654;SDS011;48717;55.556;37.816;2022-12-20T02:51:52;12.07;;;5.35;;
62654;SDS011;48717;55.556;37.816;2022-12-20T02:54:22;11.70;;;5.57;;
62654;SDS011;48717;55.556;37.816;2022-12-20T02:56:53;13.05;;;5.95;;
62654;SDS011;48717;55.556;37.816;2022-12-20T02:59:28;15.15;;;6.85;;
62654;SDS011;48717;55.556;37.816;2022-12-20T03:02:02;12.77;;;6.75;;
62654;SDS011;48717;55.556;37.816;2022-12-20T03:04:31;17.67;;;8.98;;
62654;SDS011;48717;55.556;37.816;2022-12-20T03:09:39;8.85;;;4.88;;
62654;SDS011;48717;55.556;37.816;2022-12-20T03:12:08;16.88;;;7.72;;
62654;SDS011;48717;55.556;37.816;2022-12-20T03:14:38;23.50;;;9.25;;
62654;SDS011;48717;55.556;37.816;2022-12-20T03:17:09;23.95;;;11.27;;
62654;SDS011;48717;55.556;37.816;2022-12-20T03:19:37;30.27;;;12.73;;
62654;SDS011;48717;55.556;37.816;2022-12-20T03:22:04;18.85;;;9.45;;
62654;SDS011;48717;55.556;37.816;2022-12-20T03:24:32;24.58;;;12.38;;
62654;SDS011;48717;55.556;37.816;2022-12-20T03:26:59;24.10;;;11.00;;
62654;SDS011;48717;55.556;37.816;2022-12-20T03:29:27;19.17;;;7.30;;
62654;SDS011;48717;55.556;37.816;2022-12-20T03:31:54;22.30;;;8.15;;
62654;SDS011;48717;55.556;37.816;2022-12-20T03:34:21;17.08;;;7.78;;
62654;SDS011;48717;55.556;37.816;2022-12-20T03:36:48;11.50;;;5.30;;
62654;SDS011;48717;55.556;37.816;2022-12-20T03:39:15;19.98;;;7.70;;
62654;SDS011;48717;55.556;37.816;2022-12-20T03:41:43;21.35;;;9.98;;
62654;SDS011;48717;55.556;37.816;2022-12-20T03:44:14;26.02;;;12.30;;
62654;SDS011;48717;55.556;37.816;2022-12-20T03:46:41;25.50;;;9.93;;
62654;SDS011;48717;55.556;37.816;2022-12-20T03:49:09;19.20;;;8.50;;
62654;SDS011;48717;55.556;37.816;2022-12-20T03:51:43;15.73;;;6.90;;
62654;SDS011;48717;55.556;37.816;2022-12-20T03:54:10;18.42;;;8.13;;
62654;SDS011;48717;55.556;37.816;2022-12-20T03:56:57;29.25;;;14.07;;
62654;SDS011;48717;55.556;37.816;2022-12-20T03:59:25;27.30;;;12.30;;
62654;SDS011;48717;55.556;37.816;2022-12-20T04:01:52;34.58;;;16.60;;
62654;SDS011;48717;55.556;37.816;2022-12-20T04:04:19;34.70;;;11.48;;
62654;SDS011;48717;55.556;37.816;2022-12-20T04:06:46;34.85;;;13.15;;
62654;SDS011;48717;55.556;37.816;2022-12-20T04:09:14;28.55;;;12.15;;
62654;SDS011;48717;55.556;37.816;2022-12-20T04:11:47;27.67;;;10.73;;
62654;SDS011;48717;55.556;37.816;2022-12-20T04:14:14;26.10;;;11.07;;
62654;SDS011;48717;55.556;37.816;2022-12-20T04:16:42;26.25;;;10.70;;
62654;SDS011;48717;55.556;37.816;2022-12-20T04:19:10;22.55;;;7.95;;
62654;SDS011;48717;55.556;37.816;2022-12-20T04:21:44;22.33;;;9.88;;
62654;SDS011;48717;55.556;37.816;2022-12-20T04:24:12;30.98;;;11.68;;
62654;SDS011;48717;55.556;37.816;2022-12-20T04:26:48;17.70;;;7.43;;
62654;SDS011;48717;55.556;37.816;2022-12-20T04:29:16;22.30;;;9.45;;
62654;SDS011;48717;55.556;37.816;2022-12-20T04:31:44;12.88;;;4.85;;
62654;SDS011;48717;55.556;37.816;2022-12-20T04:34:11;21.80;;;8.07;;
62654;SDS011;48717;55.556;37.816;2022-12-20T04:36:39;23.73;;;8.77;;
62654;SDS011;48717;55.556;37.816;2022-12-20T04:39:12;16.95;;;7.35;;
62654;SDS011;48717;55.556;37.816;2022-12-20T04:42:01;22.45;;;8.60;;
62654;SDS011;48717;55.556;37.816;2022-12-20T04:44:28;47.30;;;18.20;;
62654;SDS011;48717;55.556;37.816;2022-12-20T04:46:55;30.58;;;11.93;;
62654;SDS011;48717;55.556;37.816;2022-12-20T04:49:23;48.70;;;18.80;;
62654;SDS011;48717;55.556;37.816;2022-12-20T04:51:50;35.72;;;13.98;;
62654;SDS011;48717;55.556;37.816;2022-12-20T04:54:17;27.40;;;11.57;;
62654;SDS011;48717;55.556;37.816;2022-12-20T04:56:56;27.17;;;12.68;;
62654;SDS011;48717;55.556;37.816;2022-12-20T04:59:23;29.20;;;13.25;;
62654;SDS011;48717;55.556;37.816;2022-12-20T05:01:52;23.63;;;10.87;;
62654;SDS011;48717;55.556;37.816;2022-12-20T05:04:51;19.73;;;7.38;;
62654;SDS011;48717;55.556;37.816;2022-12-20T05:07:20;12.90;;;5.50;;
62654;SDS011;48717;55.556;37.816;2022-12-20T05:09:51;21.75;;;9.95;;
62654;SDS011;48717;55.556;37.816;2022-12-20T05:12:18;25.75;;;9.68;;
62654;SDS011;48717;55.556;37.816;2022-12-20T05:14:45;21.15;;;8.65;;
62654;SDS011;48717;55.556;37.816;2022-12-20T05:17:14;8.63;;;3.35;;
62654;SDS011;48717;55.556;37.816;2022-12-20T05:19:42;21.77;;;7.68;;
62654;SDS011;48717;55.556;37.816;2022-12-20T05:22:11;22.30;;;9.10;;
62654;SDS011;48717;55.556;37.816;2022-12-20T05:25:08;13.73;;;6.32;;
62654;SDS011;48717;55.556;37.816;2022-12-20T05:27:58;16.50;;;7.78;;
62654;SDS011;48717;55.556;37.816;2022-12-20T05:30:27;17.17;;;7.15;;
62654;SDS011;48717;55.556;37.816;2022-12-20T05:32:56;15.48;;;6.30;;
62654;SDS011;48717;55.556;37.816;2022-12-20T05:35:23;15.98;;;6.35;;
62654;SDS011;48717;55.556;37.816;2022-12-20T05:37:56;17.52;;;6.75;;
62654;SDS011;48717;55.556;37.816;2022-12-20T05:40:25;17.15;;;7.03;;
62654;SDS011;48717;55.556;37.816;2022-12-20T05:42:52;17.85;;;6.93;;
62654;SDS011;48717;55.556;37.816;2022-12-20T05:45:26;22.58;;;8.43;;
62654;SDS011;48717;55.556;37.816;2022-12-20T05:48:00;16.50;;;6.22;;
62654;SDS011;48717;55.556;37.816;2022-12-20T05:53:15;8.23;;;3.95;;
62654;SDS011;48717;55.556;37.816;2022-12-20T05:55:49;6.00;;;2.88;;
62654;SDS011;48717;55.556;37.816;2022-12-20T05:58:19;25.70;;;10.45;;
62654;SDS011;48717;55.556;37.816;2022-12-20T06:01:00;10.07;;;4.13;;
62654;SDS011;48717;55.556;37.816;2022-12-20T06:03:31;16.15;;;6.20;;
62654;SDS011;48717;55.556;37.816;2022-12-20T06:06:01;20.00;;;8.88;;
62654;SDS011;48717;55.556;37.816;2022-12-20T06:08:34;19.30;;;8.77;;
62654;SDS011;48717;55.556;37.816;2022-12-20T06:11:03;22.38;;;9.35;;
62654;SDS011;48717;55.556;37.816;2022-12-20T06:13:37;17.00;;;7.80;;
62654;SDS011;48717;55.556;37.816;2022-12-20T06:16:06;11.52;;;5.80;;
62654;SDS011;48717;55.556;37.816;2022-12-20T06:18:33;24.27;;;10.10;;
62654;SDS011;48717;55.556;37.816;2022-12-20T06:21:02;16.30;;;7.72;;
62654;SDS011;48717;55.556;37.816;2022-12-20T06:23:29;24.67;;;9.05;;
62654;SDS011;48717;55.556;37.816;2022-12-20T06:26:04;13.80;;;6.07;;
62654;SDS011;48717;55.556;37.816;2022-12-20T06:28:42;18.42;;;8.13;;
62654;SDS011;48717;55.556;37.816;2022-12-20T06:31:09;16.25;;;5.10;;
62654;SDS011;48717;55.556;37.816;2022-12-20T06:33:40;16.27;;;6.45;;
62654;SDS011;48717;55.556;37.816;2022-12-20T06:36:09;22.15;;;7.82;;
62654;SDS011;48717;55.556;37.816;2022-12-20T06:38:36;17.65;;;7.55;;
62654;SDS011;48717;55.556;37.816;2022-12-20T06:41:04;12.40;;;5.32;;
62654;SDS011;48717;55.556;37.816;2022-12-20T06:43:31;16.77;;;7.32;;
62654;SDS011;48717;55.556;37.816;2022-12-20T06:45:58;10.48;;;4.65;;
62654;SDS011;48717;55.556;37.816;2022-12-20T06:48:25;7.28;;;3.80;;
62654;SDS011;48717;55.556;37.816;2022-12-20T06:50:53;20.27;;;8.13;;
62654;SDS011;48717;55.556;37.816;2022-12-20T06:53:23;15.98;;;5.30;;
62654;SDS011;48717;55.556;37.816;2022-12-20T06:55:50;18.05;;;7.05;;
62654;SDS011;48717;55.556;37.816;2022-12-20T06:58:19;12.40;;;5.28;;
62654;SDS011;48717;55.556;37.816;2022-12-20T07:00:47;13.45;;;5.57;;
62654;SDS011;48717;55.556;37.816;2022-12-20T07:03:15;15.35;;;7.00;;
62654;SDS011;48717;55.556;37.816;2022-12-20T07:05:42;10.60;;;4.28;;
62654;SDS011;48717;55.556;37.816;2022-12-20T07:08:09;7.50;;;3.45;;
62654;SDS011;48717;55.556;37.816;2022-12-20T07:10:36;10.75;;;5.18;;
62654;SDS011;48717;55.556;37.816;2022-12-20T07:13:03;16.83;;;7.55;;
62654;SDS011;48717;55.556;37.816;2022-12-20T07:15:30;12.77;;;4.90;;
62654;SDS011;48717;55.556;37.816;2022-12-20T07:17:58;10.77;;;4.90;;
62654;SDS011;48717;55.556;37.816;2022-12-20T07:20:25;11.23;;;5.07;;
62654;SDS011;48717;55.556;37.816;2022-12-20T07:22:52;9.88;;;4.75;;
62654;SDS011;48717;55.556;37.816;2022-12-20T07:25:19;14.38;;;7.03;;
62654;SDS011;48717;55.556;37.816;2022-12-20T07:27:47;15.55;;;6.97;;
62654;SDS011;48717;55.556;37.816;2022-12-20T07:30:18;9.52;;;4.38;;
62654;SDS011;48717;55.556;37.816;2022-12-20T07:32:46;10.35;;;4.53;;
62654;SDS011;48717;55.556;37.816;2022-12-20T07:35:13;10.80;;;4.68;;
62654;SDS011;48717;55.556;37.816;2022-12-20T07:37:41;11.48;;;4.43;;
62654;SDS011;48717;55.556;37.816;2022-12-20T07:40:08;10.50;;;5.00;;
62654;SDS011;48717;55.556;37.816;2022-12-20T07:45:13;10.85;;;3.78;;
62654;SDS011;48717;55.556;37.816;2022-12-20T07:47:41;14.80;;;7.10;;
62654;SDS011;48717;55.556;37.816;2022-12-20T07:50:09;7.63;;;3.83;;
62654;SDS011;48717;55.556;37.816;2022-12-20T07:52:37;10.18;;;4.38;;
62654;SDS011;48717;55.556;37.816;2022-12-20T07:55:08;13.55;;;5.75;;
62654;SDS011;48717;55.556;37.816;2022-12-20T07:57:48;8.35;;;3.65;;
62654;SDS011;48717;55.556;37.816;2022-12-20T08:00:19;5.53;;;3.15;;
62654;SDS011;48717;55.556;37.816;2022-12-20T08:02:47;10.68;;;4.75;;
62654;SDS011;48717;55.556;37.816;2022-12-20T08:05:20;11.57;;;5.63;;
62654;SDS011;48717;55.556;37.816;2022-12-20T08:07:48;10.43;;;4.93;;
62654;SDS011;48717;55.556;37.816;2022-12-20T08:10:24;8.05;;;4.07;;
62654;SDS011;48717;55.556;37.816;2022-12-20T08:12:52;11.10;;;5.15;;
62654;SDS011;48717;55.556;37.816;2022-12-20T08:15:20;8.18;;;4.05;;
62654;SDS011;48717;55.556;37.816;2022-12-20T08:17:48;7.82;;;4.47;;
62654;SDS011;48717;55.556;37.816;2022-12-20T08:20:16;11.02;;;4.53;;
62654;SDS011;48717;55.556;37.816;2022-12-20T08:22:43;9.25;;;3.78;;
62654;SDS011;48717;55.556;37.816;2022-12-20T08:25:11;5.03;;;2.63;;
62654;SDS011;48717;55.556;37.816;2022-12-20T08:27:38;5.00;;;2.95;;
62654;SDS011;48717;55.556;37.816;2022-12-20T08:30:05;8.82;;;4.97;;
62654;SDS011;48717;55.556;37.816;2022-12-20T08:32:34;9.50;;;4.10;;
62654;SDS011;48717;55.556;37.816;2022-12-20T08:35:02;9.65;;;4.15;;
62654;SDS011;48717;55.556;37.816;2022-12-20T08:37:30;9.25;;;4.00;;
62654;SDS011;48717;55.556;37.816;2022-12-20T08:39:57;5.60;;;2.95;;
62654;SDS011;48717;55.556;37.816;2022-12-20T08:42:24;11.80;;;4.47;;
62654;SDS011;48717;55.556;37.816;2022-12-20T08:44:51;7.38;;;3.85;;
62654;SDS011;48717;55.556;37.816;2022-12-20T08:47:18;8.00;;;4.45;;
62654;SDS011;48717;55.556;37.816;2022-12-20T08:49:45;7.15;;;3.75;;
62654;SDS011;48717;55.556;37.816;2022-12-20T08:52:13;8.90;;;4.18;;
62654;SDS011;48717;55.556;37.816;2022-12-20T08:54:41;6.93;;;3.63;;
62654;SDS011;48717;55.556;37.816;2022-12-20T08:57:08;8.20;;;4.38;;
62654;SDS011;48717;55.556;37.816;2022-12-20T08:59:35;8.30;;;4.70;;
62654;SDS011;48717;55.556;37.816;2022-12-20T09:02:02;11.27;;;5.28;;
62654;SDS011;48717;55.556;37.816;2022-12-20T09:04:29;9.88;;;5.07;;
62654;SDS011;48717;55.556;37.816;2022-12-20T09:06:56;11.23;;;4.22;;
62654;SDS011;48717;55.556;37.816;2022-12-20T09:09:23;10.20;;;5.65;;
62654;SDS011;48717;55.556;37.816;2022-12-20T09:11:50;6.88;;;3.78;;
62654;SDS011;48717;55.556;37.816;2022-12-20T09:14:18;8.10;;;4.30;;
62654;SDS011;48717;55.556;37.816;2022-12-20T09:16:45;10.38;;;4.18;;
62654;SDS011;48717;55.556;37.816;2022-12-20T09:19:13;9.68;;;4.32;;
62654;SDS011;48717;55.556;37.816;2022-12-20T09:21:42;11.18;;;4.03;;
62654;SDS011;48717;55.556;37.816;2022-12-20T09:24:09;8.00;;;4.07;;
62654;SDS011;48717;55.556;37.816;2022-12-20T09:26:36;5.57;;;3.05;;
62654;SDS011;48717;55.556;37.816;2022-12-20T09:29:03;10.77;;;5.00;;
62654;SDS011;48717;55.556;37.816;2022-12-20T09:31:31;9.38;;;5.00;;
62654;SDS011;48717;55.556;37.816;2022-12-20T09:33:58;6.63;;;2.67;;
62654;SDS011;48717;55.556;37.816;2022-12-20T09:36:28;9.95;;;5.20;;
62654;SDS011;48717;55.556;37.816;2022-12-20T09:38:55;5.47;;;2.97;;
62654;SDS011;48717;55.556;37.816;2022-12-20T09:41:31;9.13;;;3.15;;
62654;SDS011;48717;55.556;37.816;2022-12-20T09:44:00;8.80;;;4.45;;
62654;SDS011;48717;55.556;37.816;2022-12-20T09:46:37;5.18;;;2.53;;
62654;SDS011;48717;55.556;37.816;2022-12-20T09:49:07;13.15;;;5.60;;
62654;SDS011;48717;55.556;37.816;2022-12-20T09:54:55;9.07;;;4.57;;
62654;SDS011;48717;55.556;37.816;2022-12-20T10:00:13;4.38;;;2.55;;
62654;SDS011;48717;55.556;37.816;2022-12-20T10:02:41;5.38;;;2.50;;
62654;SDS011;48717;55.556;37.816;2022-12-20T10:05:45;7.95;;;4.65;;
62654;SDS011;48717;55.556;37.816;2022-12-20T10:18:49;7.32;;;3.40;;
62654;SDS011;48717;55.556;37.816;2022-12-20T10:21:26;5.07;;;3.22;;
62654;SDS011;48717;55.556;37.816;2022-12-20T10:24:03;7.18;;;3.58;;
62654;SDS011;48717;55.556;37.816;2022-12-20T10:26:51;8.77;;;4.28;;
62654;SDS011;48717;55.556;37.816;2022-12-20T10:29:18;12.38;;;4.10;;
62654;SDS011;48717;55.556;37.816;2022-12-20T10:31:53;7.65;;;2.75;;
62654;SDS011;48717;55.556;37.816;2022-12-20T10:34:26;8.13;;;3.97;;
62654;SDS011;48717;55.556;37.816;2022-12-20T10:37:12;3.88;;;2.33;;
62654;SDS011;48717;55.556;37.816;2022-12-20T10:39:42;5.47;;;2.75;;
62654;SDS011;48717;55.556;37.816;2022-12-20T10:42:23;6.88;;;3.85;;
62654;SDS011;48717;55.556;37.816;2022-12-20T10:44:57;7.22;;;4.32;;
62654;SDS011;48717;55.556;37.816;2022-12-20T10:50:07;4.00;;;2.47;;
62654;SDS011;48717;55.556;37.816;2022-12-20T10:52:39;8.07;;;2.42;;
62654;SDS011;48717;55.556;37.816;2022-12-20T11:03:51;6.53;;;2.47;;
62654;SDS011;48717;55.556;37.816;2022-12-20T11:09:20;4.45;;;2.40;;
62654;SDS011;48717;55.556;37.816;2022-12-20T11:12:11;10.73;;;4.22;;
62654;SDS011;48717;55.556;37.816;2022-12-20T11:14:41;9.93;;;4.25;;
62654;SDS011;48717;55.556;37.816;2022-12-20T11:30:42;10.07;;;4.55;;
62654;SDS011;48717;55.556;37.816;2022-12-20T11:33:46;6.70;;;3.33;;
62654;SDS011;48717;55.556;37.816;2022-12-20T11:36:48;6.43;;;2.75;;
62654;SDS011;48717;55.556;37.816;2022-12-20T11:53:44;8.95;;;4.18;;
62654;SDS011;48717;55.556;37.816;2022-12-20T12:01:59;10.65;;;4.80;;
62654;SDS011;48717;55.556;37.816;2022-12-20T12:04:57;9.07;;;4.47;;
62654;SDS011;48717;55.556;37.816;2022-12-20T12:07:30;11.48;;;4.20;;
62654;SDS011;48717;55.556;37.816;2022-12-20T12:10:03;8.73;;;3.67;;
62654;SDS011;48717;55.556;37.816;2022-12-20T12:12:41;7.90;;;3.65;;
62654;SDS011;48717;55.556;37.816;2022-12-20T12:15:22;15.13;;;4.35;;
62654;SDS011;48717;55.556;37.816;2022-12-20T12:18:09;8.77;;;3.35;;
62654;SDS011;48717;55.556;37.816;2022-12-20T12:25:57;7.50;;;3.25;;
62654;SDS011;48717;55.556;37.816;2022-12-20T12:28:27;13.45;;;4.90;;
62654;SDS011;48717;55.556;37.816;2022-12-20T12:31:15;10.68;;;3.03;;
62654;SDS011;48717;55.556;37.816;2022-12-20T12:34:07;8.25;;;4.07;;
62654;SDS011;48717;55.556;37.816;2022-12-20T12:36:53;5.35;;;2.55;;
62654;SDS011;48717;55.556;37.816;2022-12-20T12:45:58;10.93;;;5.00;;
62654;SDS011;48717;55.556;37.816;2022-12-20T12:48:30;7.68;;;3.33;;
62654;SDS011;48717;55.556;37.816;2022-12-20T12:51:06;11.10;;;3.92;;
62654;SDS011;48717;55.556;37.816;2022-12-20T12:53:41;8.02;;;3.22;;
62654;SDS011;48717;55.556;37.816;2022-12-20T12:56:28;13.52;;;3.83;;
62654;SDS011;48717;55.556;37.816;2022-12-20T13:11:53;4.53;;;2.40;;
62654;SDS011;48717;55.556;37.816;2022-12-20T13:19:50;12.30;;;4.72;;
62654;SDS011;48717;55.556;37.816;2022-12-20T13:22:20;11.30;;;2.92;;
62654;SDS011;48717;55.556;37.816;2022-12-20T13:40:43;7.70;;;3.55;;
62654;SDS011;48717;55.556;37.816;2022-12-20T13:43:24;13.77;;;4.85;;
62654;SDS011;48717;55.556;37.816;2022-12-20T13:48:32;13.85;;;5.63;;
62654;SDS011;48717;55.556;37.816;2022-12-20T13:51:04;9.55;;;3.60;;
62654;SDS011;48717;55.556;37.816;2022-12-20T13:53:33;8.70;;;3.17;;
62654;SDS011;48717;55.556;37.816;2022-12-20T14:01:54;6.75;;;2.70;;
62654;SDS011;48717;55.556;37.816;2022-12-20T14:04:26;15.52;;;5.75;;
62654;SDS011;48717;55.556;37.816;2022-12-20T14:07:04;12.52;;;5.47;;
62654;SDS011;48717;55.556;37.816;2022-12-20T14:09:35;16.77;;;6.30;;
62654;SDS011;48717;55.556;37.816;2022-12-20T14:12:10;12.23;;;4.53;;
62654;SDS011;48717;55.556;37.816;2022-12-20T14:14:48;14.07;;;5.80;;
62654;SDS011;48717;55.556;37.816;2022-12-20T14:17:29;16.40;;;6.13;;
62654;SDS011;48717;55.556;37.816;2022-12-20T14:20:16;15.27;;;5.05;;
62654;SDS011;48717;55.556;37.816;2022-12-20T14:23:04;3.38;;;2.17;;
62654;SDS011;48717;55.556;37.816;2022-12-20T14:25:42;10.30;;;4.53;;
62654;SDS011;48717;55.556;37.816;2022-12-20T14:30:58;9.35;;;3.92;;
62654;SDS011;48717;55.556;37.816;2022-12-20T14:33:33;8.20;;;3.92;;
62654;SDS011;48717;55.556;37.816;2022-12-20T14:36:06;10.23;;;3.88;;
62654;SDS011;48717;55.556;37.816;2022-12-20T14:38:43;14.82;;;4.75;;
62654;SDS011;48717;55.556;37.816;2022-12-20T14:43:58;7.18;;;2.63;;
62654;SDS011;48717;55.556;37.816;2022-12-20T14:46:47;17.00;;;5.07;;
62654;SDS011;48717;55.556;37.816;2022-12-20T14:54:49;9.70;;;4.68;;
62654;SDS011;48717;55.556;37.816;2022-12-20T15:08:14;14.75;;;5.90;;
62654;SDS011;48717;55.556;37.816;2022-12-20T15:10:42;11.02;;;4.13;;
62654;SDS011;48717;55.556;37.816;2022-12-20T15:13:34;13.93;;;5.40;;
62654;SDS011;48717;55.556;37.816;2022-12-20T15:18:41;19.60;;;6.10;;
62654;SDS011;48717;55.556;37.816;2022-12-20T15:21:11;7.85;;;3.45;;
62654;SDS011;48717;55.556;37.816;2022-12-20T15:23:48;19.42;;;6.57;;
62654;SDS011;48717;55.556;37.816;2022-12-20T15:26:21;11.98;;;5.28;;
62654;SDS011;48717;55.556;37.816;2022-12-20T15:28:50;13.35;;;5.40;;
62654;SDS011;48717;55.556;37.816;2022-12-20T15:31:18;14.55;;;5.43;;
62654;SDS011;48717;55.556;37.816;2022-12-20T15:33:55;13.77;;;5.22;;
62654;SDS011;48717;55.556;37.816;2022-12-20T15:36:28;15.38;;;6.30;;
62654;SDS011;48717;55.556;37.816;2022-12-20T15:38:55;23.00;;;6.47;;
62654;SDS011;48717;55.556;37.816;2022-12-20T15:41:42;24.13;;;6.32;;
62654;SDS011;48717;55.556;37.816;2022-12-20T15:44:13;12.82;;;4.30;;
62654;SDS011;48717;55.556;37.816;2022-12-20T15:46:51;13.50;;;3.43;;
62654;SDS011;48717;55.556;37.816;2022-12-20T15:49:20;27.98;;;6.90;;
62654;SDS011;48717;55.556;37.816;2022-12-20T15:54:21;19.48;;;7.45;;
62654;SDS011;48717;55.556;37.816;2022-12-20T15:56:50;18.00;;;5.53;;
62654;SDS011;48717;55.556;37.816;2022-12-20T15:59:17;23.77;;;7.50;;
62654;SDS011;48717;55.556;37.816;2022-12-20T16:02:24;16.98;;;5.65;;
62654;SDS011;48717;55.556;37.816;2022-12-20T16:04:54;21.88;;;7.57;;
62654;SDS011;48717;55.556;37.816;2022-12-20T16:07:22;20.30;;;7.47;;
62654;SDS011;48717;55.556;37.816;2022-12-20T16:09:49;19.05;;;6.20;;
62654;SDS011;48717;55.556;37.816;2022-12-20T16:12:18;16.23;;;7.03;;
62654;SDS011;48717;55.556;37.816;2022-12-20T16:14:49;17.50;;;6.40;;
62654;SDS011;48717;55.556;37.816;2022-12-20T16:17:17;20.00;;;6.38;;
62654;SDS011;48717;55.556;37.816;2022-12-20T16:19:44;13.38;;;5.70;;
62654;SDS011;48717;55.556;37.816;2022-12-20T16:22:21;13.95;;;5.57;;
62654;SDS011;48717;55.556;37.816;2022-12-20T16:24:50;10.68;;;3.65;;
62654;SDS011;48717;55.556;37.816;2022-12-20T16:27:17;19.10;;;6.70;;
62654;SDS011;48717;55.556;37.816;2022-12-20T16:29:46;11.13;;;5.22;;
62654;SDS011;48717;55.556;37.816;2022-12-20T16:32:17;13.95;;;6.30;;
62654;SDS011;48717;55.556;37.816;2022-12-20T16:34:45;15.15;;;6.50;;
62654;SDS011;48717;55.556;37.816;2022-12-20T16:37:15;4.78;;;3.25;;
62654;SDS011;48717;55.556;37.816;2022-12-20T16:39:42;8.75;;;3.78;;
62654;SDS011;48717;55.556;37.816;2022-12-20T16:42:17;5.72;;;2.65;;
62654;SDS011;48717;55.556;37.816;2022-12-20T16:44:52;13.82;;;6.35;;
62654;SDS011;48717;55.556;37.816;2022-12-20T16:47:20;13.65;;;3.38;;
62654;SDS011;48717;55.556;37.816;2022-12-20T16:49:47;3.83;;;2.08;;
62654;SDS011;48717;55.556;37.816;2022-12-20T16:52:19;8.20;;;3.85;;
62654;SDS011;48717;55.556;37.816;2022-12-20T16:54:48;8.18;;;3.78;;
62654;SDS011;48717;55.556;37.816;2022-12-20T16:57:15;8.57;;;4.03;;
62654;SDS011;48717;55.556;37.816;2022-12-20T16:59:42;9.45;;;3.30;;
62654;SDS011;48717;55.556;37.816;2022-12-20T17:02:23;8.13;;;2.60;;
62654;SDS011;48717;55.556;37.816;2022-12-20T17:04:54;7.45;;;2.78;;
62654;SDS011;48717;55.556;37.816;2022-12-20T17:07:21;20.52;;;7.70;;
62654;SDS011;48717;55.556;37.816;2022-12-20T17:09:49;14.93;;;4.55;;
62654;SDS011;48717;55.556;37.816;2022-12-20T17:12:18;8.40;;;3.45;;
62654;SDS011;48717;55.556;37.816;2022-12-20T17:17:14;13.45;;;5.40;;
62654;SDS011;48717;55.556;37.816;2022-12-20T17:19:41;17.30;;;6.45;;
62654;SDS011;48717;55.556;37.816;2022-12-20T17:22:09;14.27;;;5.88;;
62654;SDS011;48717;55.556;37.816;2022-12-20T17:24:55;18.30;;;7.05;;
62654;SDS011;48717;55.556;37.816;2022-12-20T17:27:22;16.00;;;5.82;;
62654;SDS011;48717;55.556;37.816;2022-12-20T17:29:50;12.43;;;4.20;;
62654;SDS011;48717;55.556;37.816;2022-12-20T17:32:22;2.90;;;2.33;;
62654;SDS011;48717;55.556;37.816;2022-12-20T17:34:51;17.00;;;5.75;;
62654;SDS011;48717;55.556;37.816;2022-12-20T17:37:18;5.40;;;3.03;;
62654;SDS011;48717;55.556;37.816;2022-12-20T17:39:47;17.73;;;5.97;;
62654;SDS011;48717;55.556;37.816;2022-12-20T17:42:14;11.82;;;5.47;;
62654;SDS011;48717;55.556;37.816;2022-12-20T17:44:42;15.82;;;5.85;;